Time;durP1;ratioP1;P1;durP2;ratioP2;P2;SDS_P1;SDS_P2;PMS_P1;PMS_P2;Temp;Humidity;BMP_temperature;BMP_pressure;BME280_temperature;BME280_humidity;BME280_pressure;Samples;Min_cycle;Max_cycle;Signal;HPM_P1;HPM_P2
2022/04/09 00:00:00;;;;;;;11.35;5.50;;;;;;;12.63;53.86;99975.72;4993083;28;20148;-86
2022/04/09 00:02:28;;;;;;;8.73;4.60;;;;;;;12.54;53.32;99966.09;5010251;28;20044;-85
2022/04/09 00:04:55;;;;;;;7.75;4.57;;;;;;;12.55;53.19;99967.75;4988404;28;20044;-85
2022/04/09 00:07:20;;;;;;;6.00;4.00;;;;;;;12.67;52.18;99972.47;4992186;28;20121;-84
2022/04/09 00:09:46;;;;;;;7.63;3.90;;;;;;;12.69;51.97;99969.59;4993707;28;20159;-88
2022/04/09 00:12:15;;;;;;;10.48;4.15;;;;;;;12.64;52.13;99966.59;4992530;28;20430;-87
2022/04/09 00:14:41;;;;;;;9.57;4.68;;;;;;;12.54;52.55;99958.00;5011673;28;20030;-86
2022/04/09 00:17:08;;;;;;;10.50;4.70;;;;;;;12.64;52.09;99961.22;4992209;28;20347;-86
2022/04/09 00:19:35;;;;;;;11.07;6.00;;;;;;;12.51;53.43;99956.53;4973206;28;20038;-85
2022/04/09 00:22:03;;;;;;;8.93;4.22;;;;;;;12.49;52.09;99957.75;4992848;28;20029;-84
2022/04/09 00:24:29;;;;;;;7.75;4.40;;;;;;;12.49;52.59;99957.75;4992130;28;20151;-85
2022/04/09 00:26:54;;;;;;;9.95;4.40;;;;;;;12.49;52.49;99946.97;5011674;28;20038;-86
2022/04/09 00:29:20;;;;;;;6.53;3.40;;;;;;;12.40;51.77;99952.44;5008646;28;20084;-85
2022/04/09 00:31:45;;;;;;;7.22;3.60;;;;;;;12.48;51.82;99956.91;4987364;28;20034;-87
2022/04/09 00:34:11;;;;;;;8.38;3.42;;;;;;;12.48;51.77;99950.66;4991833;28;20053;-84
2022/04/09 00:36:37;;;;;;;5.47;3.22;;;;;;;12.57;51.20;99968.38;4992387;28;20176;-86
2022/04/09 00:39:04;;;;;;;6.60;3.53;;;;;;;12.61;51.15;99967.00;4991770;28;20046;-85
2022/04/09 00:41:31;;;;;;;9.82;3.30;;;;;;;12.55;51.19;99951.56;4994297;28;20149;-85
2022/04/09 00:43:58;;;;;;;6.38;3.90;;;;;;;12.62;51.96;99958.72;4977354;28;20642;-85
2022/04/09 00:46:25;;;;;;;7.10;3.95;;;;;;;12.56;52.34;99964.03;4989195;28;20065;-85
2022/04/09 00:48:51;;;;;;;6.50;4.00;;;;;;;12.56;52.13;99948.69;4995876;28;20081;-85
2022/04/09 00:51:16;;;;;;;6.55;3.40;;;;;;;12.65;51.13;99949.41;4994505;28;20034;-84
2022/04/09 00:53:42;;;;;;;7.22;3.80;;;;;;;12.54;52.12;99939.13;4977525;28;20073;-85
2022/04/09 00:56:13;;;;;;;7.63;3.40;;;;;;;12.43;52.18;99938.59;5017150;28;20030;-86
2022/04/09 00:58:55;;;;;;;6.93;3.67;;;;;;;12.49;51.60;99947.78;4996246;28;20029;-84
2022/04/09 01:01:24;;;;;;;6.47;3.60;;;;;;;12.38;52.69;99940.19;5024765;28;20033;-86
2022/04/09 01:03:50;;;;;;;6.25;3.83;;;;;;;12.37;52.50;99938.53;5000039;28;20052;-85
2022/04/09 01:06:16;;;;;;;;;;;;;;;12.32;52.92;99940.97;4996289;28;20048;-85
2022/04/09 01:08:42;;;;;;;5.65;3.70;;;;;;;12.32;52.62;99943.66;4993226;28;20366;-85
2022/04/09 01:11:09;;;;;;;8.73;4.10;;;;;;;12.41;52.06;99940.66;4979908;28;20029;-84
2022/04/09 01:13:35;;;;;;;5.90;3.50;;;;;;;12.46;51.81;99935.53;4981559;28;20026;-85
2022/04/09 01:16:01;;;;;;;7.95;3.80;;;;;;;12.43;51.80;99938.59;4965892;28;20049;-85
2022/04/09 01:18:26;;;;;;;6.05;3.08;;;;;;;12.50;51.35;99943.22;5015972;28;20041;-85
2022/04/09 01:20:58;;;;;;;9.48;3.90;;;;;;;12.43;51.56;99927.84;4998253;28;20038;-85
2022/04/09 01:23:24;;;;;;;9.75;3.67;;;;;;;12.52;51.03;99925.00;4979509;28;20045;-84
2022/04/09 01:25:50;;;;;;;6.72;3.50;;;;;;;12.51;51.42;99928.72;4978545;28;20030;-84
2022/04/09 01:28:16;;;;;;;8.07;3.80;;;;;;;12.53;51.44;99935.59;5015494;28;20046;-86
2022/04/09 01:30:42;;;;;;;6.20;3.45;;;;;;;12.63;51.08;99927.19;4998860;28;20041;-85
2022/04/09 01:33:18;;;;;;;8.48;3.25;;;;;;;12.51;51.54;99923.34;4998098;28;20050;-83
2022/04/09 01:35:43;;;;;;;5.20;3.40;;;;;;;12.44;51.46;99921.41;5002188;28;20460;-86
2022/04/09 01:38:09;;;;;;;8.70;3.75;;;;;;;12.44;51.93;99926.78;5007752;28;20056;-84
2022/04/09 01:40:36;;;;;;;9.95;3.97;;;;;;;12.41;52.60;99919.09;4997579;28;20055;-84
2022/04/09 01:43:01;;;;;;;8.02;3.70;;;;;;;12.40;52.55;99914.72;5005204;28;20493;-85
2022/04/09 01:45:30;;;;;;;6.22;3.97;;;;;;;12.32;52.62;99909.44;5016508;28;20040;-85
2022/04/09 01:47:58;;;;;;;6.97;4.45;;;;;;;12.23;52.92;99895.25;5016319;28;20049;-85
2022/04/09 01:50:32;;;;;;;10.10;3.97;;;;;;;12.18;52.36;99884.22;5010120;28;20128;-85
2022/04/09 01:52:59;;;;;;;4.82;2.85;;;;;;;12.16;52.23;99888.13;4996855;28;20038;-84
2022/04/09 01:55:25;;;;;;;5.28;3.40;;;;;;;12.10;52.61;99888.88;5008307;28;20041;-83
2022/04/09 01:57:51;;;;;;;5.20;3.28;;;;;;;12.01;52.53;99886.31;5015535;28;20045;-85
2022/04/09 02:00:16;;;;;;;4.13;3.10;;;;;;;12.03;52.20;99894.19;4998764;28;20040;-84
2022/04/09 02:02:44;;;;;;;8.40;3.30;;;;;;;11.99;52.42;99899.13;4981021;28;20042;-85
2022/04/09 02:05:11;;;;;;;6.88;3.80;;;;;;;11.78;54.12;99907.13;4981317;28;20077;-84
2022/04/09 02:07:41;;;;;;;8.88;4.53;;;;;;;11.66;55.02;99898.69;4995249;28;20021;-84
2022/04/09 02:10:07;;;;;;;9.10;4.97;;;;;;;11.61;55.86;99896.53;4976817;28;20058;-83
2022/04/09 02:12:33;;;;;;;8.15;4.90;;;;;;;11.71;55.29;99903.50;4994075;28;20068;-83
2022/04/09 02:15:01;;;;;;;9.93;4.90;;;;;;;11.61;55.31;99882.22;5008319;28;20038;-84
2022/04/09 02:17:28;;;;;;;8.38;4.40;;;;;;;11.74;55.11;99889.66;4998425;28;20018;-83
2022/04/09 02:19:54;;;;;;;6.50;3.70;;;;;;;11.65;55.18;99888.09;5007422;28;20050;-84
2022/04/09 02:22:23;;;;;;;8.65;3.97;;;;;;;11.65;54.99;99896.16;5001612;28;20184;-84
2022/04/09 02:24:52;;;;;;;9.68;3.90;;;;;;;11.67;54.79;99891.44;4995760;28;20033;-84
2022/04/09 02:27:18;;;;;;;7.97;4.22;;;;;;;11.67;54.86;99902.19;4991469;28;20026;-84
2022/04/09 02:29:45;;;;;;;7.43;4.22;;;;;;;11.52;55.35;99904.88;5011866;28;20058;-85
2022/04/09 02:32:11;;;;;;;7.97;5.20;;;;;;;11.46;56.12;99887.63;4951199;28;20045;-83
2022/04/09 02:34:37;;;;;;;10.52;4.57;;;;;;;11.42;55.88;99891.69;4998297;28;20551;-84
2022/04/09 02:37:05;;;;;;;9.05;4.78;;;;;;;11.51;55.71;99897.84;4984772;28;20038;-84
2022/04/09 02:39:31;;;;;;;9.45;4.22;;;;;;;11.50;55.91;99894.31;5007066;28;20046;-83
2022/04/09 02:41:58;;;;;;;11.52;4.65;;;;;;;11.36;55.96;99901.34;4983885;28;20060;-84
2022/04/09 02:44:24;;;;;;;7.05;3.90;;;;;;;11.37;55.64;99904.88;4995600;28;20127;-84
2022/04/09 02:46:50;;;;;;;11.38;4.13;;;;;;;11.30;55.53;99904.78;4995713;28;20034;-85
2022/04/09 02:49:18;;;;;;;6.10;3.70;;;;;;;11.25;55.64;99903.66;5011449;28;20044;-83
2022/04/09 02:51:43;;;;;;;6.32;3.45;;;;;;;11.22;55.78;99904.88;5013150;28;20033;-84
2022/04/09 02:54:15;;;;;;;7.70;4.07;;;;;;;11.23;55.31;99903.00;5009647;28;20038;-83
2022/04/09 02:56:42;;;;;;;7.72;3.80;;;;;;;11.23;55.41;99897.63;5012963;28;20506;-83
2022/04/09 02:59:09;;;;;;;9.73;4.32;;;;;;;11.18;55.46;99896.31;5011407;28;20057;-84
2022/04/09 03:01:34;;;;;;;;;;;;;;;11.15;55.92;99904.75;4997371;28;20030;-83
2022/04/09 03:04:00;;;;;;;6.05;3.53;;;;;;;10.98;56.00;99906.78;5029695;28;19921;-84
2022/04/09 03:06:25;;;;;;;5.95;4.03;;;;;;;10.85;56.81;99903.03;4999595;28;20069;-85
2022/04/09 03:08:53;;;;;;;9.13;4.43;;;;;;;10.85;57.55;99901.16;5012240;28;20053;-83
2022/04/09 03:11:19;;;;;;;9.40;4.47;;;;;;;10.87;57.63;99898.31;4985804;28;20486;-83
2022/04/09 03:13:45;;;;;;;8.55;4.50;;;;;;;10.87;57.32;99888.38;4994091;28;20050;-85
2022/04/09 03:16:11;;;;;;;8.32;4.10;;;;;;;10.89;56.98;99890.91;4994342;28;20038;-84
2022/04/09 03:18:36;;;;;;;9.75;4.57;;;;;;;10.87;57.07;99892.94;4993594;28;20069;-84
2022/04/09 03:21:02;;;;;;;6.55;3.97;;;;;;;10.77;57.16;99893.19;5009821;28;20053;-83
2022/04/09 03:23:27;;;;;;;7.75;3.90;;;;;;;10.64;56.95;99877.66;5010169;28;20046;-84
2022/04/09 03:25:53;;;;;;;7.25;3.72;;;;;;;10.73;56.72;99873.88;5009439;28;20044;-84
2022/04/09 03:28:18;;;;;;;7.22;3.80;;;;;;;10.77;55.94;99877.06;4971632;28;20451;-84
2022/04/09 03:30:46;;;;;;;7.75;3.72;;;;;;;10.65;56.46;99878.47;4977569;28;20041;-84
2022/04/09 03:33:13;;;;;;;8.32;3.85;;;;;;;10.63;56.28;99878.69;4977455;28;20184;-84
2022/04/09 03:35:40;;;;;;;7.10;3.35;;;;;;;10.64;56.18;99882.19;5010614;28;20395;-85
2022/04/09 03:38:06;;;;;;;10.05;3.38;;;;;;;10.57;56.14;99887.44;4975477;28;20060;-85
2022/04/09 03:40:31;;;;;;;8.50;3.63;;;;;;;10.62;55.80;99874.31;4993447;28;20434;-85
2022/04/09 03:42:58;;;;;;;7.97;3.55;;;;;;;10.72;55.51;99885.66;5008548;28;20472;-85
2022/04/09 03:45:24;;;;;;;8.88;4.15;;;;;;;10.66;56.05;99870.25;4990493;28;20139;-83
2022/04/09 03:47:49;;;;;;;10.25;5.32;;;;;;;10.53;55.89;99848.50;5017638;28;20132;-83
2022/04/09 03:50:16;;;;;;;12.00;5.22;;;;;;;10.80;55.08;99854.34;4971717;28;20422;-85
2022/04/09 03:52:43;;;;;;;40.88;15.07;;;;;;;10.80;55.54;99859.72;4988866;28;20042;-84
2022/04/09 03:55:08;;;;;;;34.97;14.35;;;;;;;10.81;55.31;99840.69;4993397;28;20038;-84
2022/04/09 03:57:34;;;;;;;31.85;13.45;;;;;;;10.78;55.60;99849.97;4992305;28;20045;-85
2022/04/09 03:59:59;;;;;;;32.35;13.77;;;;;;;10.86;55.46;99854.44;5007987;28;20050;-86
2022/04/09 04:02:28;;;;;;;21.57;9.90;;;;;;;10.72;55.80;99858.78;4980501;28;20426;-85
2022/04/09 04:04:54;;;;;;;15.60;7.47;;;;;;;10.70;55.54;99850.06;5009477;28;20290;-85
2022/04/09 04:07:23;;;;;;;15.05;7.68;;;;;;;10.71;55.35;99857.09;5011327;28;20057;-84
2022/04/09 04:09:50;;;;;;;16.35;7.45;;;;;;;10.82;55.32;99860.38;4994179;28;20117;-83
2022/04/09 04:12:17;;;;;;;16.02;6.75;;;;;;;10.93;54.99;99858.09;4977574;28;20038;-85
2022/04/09 04:14:42;;;;;;;14.73;7.38;;;;;;;11.09;54.69;99865.13;4993410;28;20034;-84
2022/04/09 04:17:08;;;;;;;19.25;7.97;;;;;;;11.22;54.42;99852.91;4975355;28;20046;-84
2022/04/09 04:19:35;;;;;;;15.40;7.40;;;;;;;11.22;54.53;99852.91;5006950;28;20160;-86
2022/04/09 04:22:02;;;;;;;21.38;6.72;;;;;;;11.44;54.13;99862.75;5009994;28;20038;-85
2022/04/09 04:24:28;;;;;;;28.95;8.20;;;;;;;11.45;54.06;99864.44;5012886;28;22482;-88
2022/04/09 04:26:54;;;;;;;20.45;8.27;;;;;;;11.52;53.84;99853.72;4999565;28;20042;-88
2022/04/09 04:29:20;;;;;;;19.15;7.75;;;;;;;11.57;53.95;99857.53;4995932;28;20037;-87
2022/04/09 04:31:45;;;;;;;17.10;7.15;;;;;;;11.66;53.59;99857.44;5005917;28;20033;-87
2022/04/09 04:34:12;;;;;;;18.30;7.32;;;;;;;11.77;53.60;99867.72;4975984;28;20049;-88
2022/04/09 04:36:38;;;;;;;17.17;5.97;;;;;;;11.76;53.32;99852.59;5007806;28;20063;-86
2022/04/09 04:39:03;;;;;;;32.13;7.70;;;;;;;11.93;53.45;99862.16;4964289;28;20054;-86
2022/04/09 04:41:29;;;;;;;10.07;5.22;;;;;;;11.99;52.82;99856.03;4972237;28;20044;-85
2022/04/09 04:43:56;;;;;;;17.08;7.28;;;;;;;12.00;53.07;99857.69;4988176;28;20430;-87
2022/04/09 04:46:23;;;;;;;14.20;5.28;;;;;;;12.12;52.58;99846.41;4998660;28;20560;-87
2022/04/09 04:48:49;;;;;;;18.73;6.50;;;;;;;12.22;52.26;99850.47;4971075;28;20045;-89
2022/04/09 04:51:14;;;;;;;16.50;6.40;;;;;;;12.30;52.16;99852.22;4992264;28;20045;-89
2022/04/09 04:53:40;;;;;;;19.98;7.63;;;;;;;12.35;51.96;99838.16;4979940;28;20147;-87
2022/04/09 04:56:05;;;;;;;18.23;7.47;;;;;;;12.53;51.62;99857.41;4969591;28;20095;-88
2022/04/09 04:58:31;;;;;;;21.95;9.45;;;;;;;12.69;51.35;99856.31;4980243;28;20045;-88
2022/04/09 05:00:56;;;;;;;22.77;8.45;;;;;;;12.76;51.29;99859.03;4991894;28;20041;-88
2022/04/09 05:03:22;;;;;;;12.10;6.35;;;;;;;12.85;50.43;99857.88;5009253;28;20566;-87
2022/04/09 05:05:48;;;;;;;16.67;7.45;;;;;;;12.94;50.46;99847.78;5012724;28;20046;-90
2022/04/09 05:08:13;;;;;;;13.75;6.57;;;;;;;13.02;50.02;99851.19;4968999;28;20076;-88
2022/04/09 05:10:40;;;;;;;14.07;6.07;;;;;;;13.19;49.41;99856.28;5001429;28;20081;-87
2022/04/09 05:13:06;;;;;;;12.05;5.60;;;;;;;13.30;48.95;99861.16;4998099;28;20034;-87
2022/04/09 05:15:32;;;;;;;13.02;5.20;;;;;;;13.89;47.59;99859.78;4999036;28;20034;-89
2022/04/09 05:17:57;;;;;;;10.38;5.43;;;;;;;16.55;41.88;99866.72;4980331;28;20052;-87
2022/04/09 05:20:23;;;;;;;14.18;5.28;;;;;;;19.01;36.90;99855.72;5013324;28;20071;-89
2022/04/09 05:22:48;;;;;;;;;;;;;;;21.26;32.85;99857.38;5014069;28;20046;-88
2022/04/09 05:25:14;;;;;;;;;;;;;;;23.03;29.75;99860.78;5010414;28;20372;-88
2022/04/09 05:27:41;;;;;;;11.75;5.45;;;;;;;24.72;26.79;99849.69;5009811;28;19936;-89
2022/04/09 05:30:08;;;;;;;12.20;5.35;;;;;;;26.24;24.14;99844.09;4992410;28;20040;-87
2022/04/09 05:32:36;;;;;;;8.63;4.70;;;;;;;27.43;22.78;99837.34;5008579;28;20029;-88
2022/04/09 05:35:02;;;;;;;14.95;4.93;;;;;;;28.38;21.02;99838.34;5014221;28;20033;-89
2022/04/09 05:37:29;;;;;;;8.32;3.90;;;;;;;28.77;20.92;99814.25;4997471;28;20057;-87
2022/04/09 05:39:55;;;;;;;10.20;3.78;;;;;;;30.15;18.87;99832.91;5019716;28;20046;-93
2022/04/09 05:42:22;;;;;;;8.45;4.13;;;;;;;31.21;17.82;99831.47;5014888;28;20038;-90
2022/04/09 05:44:48;;;;;;;6.70;4.00;;;;;;;32.15;16.96;99823.78;5032978;28;20095;-94
2022/04/09 05:47:15;;;;;;;12.68;4.10;;;;;;;33.15;16.05;99804.38;5002554;28;20038;-92
2022/04/09 05:49:48;;;;;;;12.02;4.15;;;;;;;33.84;15.09;99797.69;5175553;23;20073;-89
2022/04/09 05:52:44;;;;;;;10.05;4.20;;;;;;;34.42;14.42;99821.06;5040778;23;20038;31
2022/04/09 05:55:11;;;;;;;7.05;3.40;;;;;;;35.11;14.16;99815.16;5000570;23;20061;-91
2022/04/09 05:57:37;;;;;;;9.75;4.15;;;;;;;35.65;13.29;99798.22;4991278;28;20077;-88
2022/04/09 06:00:04;;;;;;;11.18;4.20;;;;;;;35.68;13.48;99803.09;4975679;28;20093;-89
2022/04/09 06:02:30;;;;;;;10.23;4.28;;;;;;;35.34;13.39;99807.16;4959504;28;20047;-86
2022/04/09 06:04:56;;;;;;;10.20;4.10;;;;;;;35.98;12.89;99814.81;4955703;28;20042;-88
2022/04/09 06:07:22;;;;;;;10.38;3.58;;;;;;;34.10;14.19;99810.66;4977689;28;20038;-86
2022/04/09 06:09:50;;;;;;;11.95;6.15;;;;;;;35.37;13.09;99800.88;4971993;28;20491;-86
2022/04/09 06:12:17;;;;;;;7.82;4.25;;;;;;;35.85;12.86;99802.84;4983371;28;20113;-87
2022/04/09 06:14:42;;;;;;;16.25;4.80;;;;;;;36.06;12.70;99801.88;4982539;28;20176;-88
2022/04/09 06:17:08;;;;;;;10.38;3.90;;;;;;;36.47;12.71;99805.50;5003034;28;20038;-86
2022/04/09 06:19:35;;;;;;;9.43;4.13;;;;;;;35.71;13.04;99808.00;4975054;28;20038;-86
2022/04/09 06:22:01;;;;;;;12.48;4.13;;;;;;;36.31;12.80;99811.03;4975565;29;20043;-87
2022/04/09 06:24:31;;;;;;;7.05;3.55;;;;;;;36.23;12.19;99810.00;4984832;28;20078;-88
2022/04/09 06:26:56;;;;;;;8.13;3.83;;;;;;;35.95;12.96;99811.94;4997513;28;20026;-87
2022/04/09 06:29:22;;;;;;;8.27;3.60;;;;;;;35.38;12.84;99817.28;4961331;28;20046;-89
2022/04/09 06:31:48;;;;;;;9.90;4.05;;;;;;;35.16;13.42;99809.34;4969745;28;20034;-88
2022/04/09 06:34:14;;;;;;;8.95;4.10;;;;;;;34.70;13.41;99812.13;4979310;28;20042;-89
2022/04/09 06:36:44;;;;;;;10.13;3.95;;;;;;;35.51;13.34;99813.31;4988983;28;20030;-91
2022/04/09 06:39:10;;;;;;;9.18;3.42;;;;;;;34.09;14.51;99812.63;4954329;28;20031;-88
2022/04/09 06:41:36;;;;;;;8.50;3.95;;;;;;;35.17;13.60;99816.53;4964139;28;20070;-94
2022/04/09 06:44:03;;;;;;;11.10;4.60;;;;;;;34.30;14.13;99806.22;4966919;28;20039;-93
2022/04/09 06:46:29;;;;;;;8.27;3.28;;;;;;;33.81;14.55;99807.53;4965910;28;20034;-91
2022/04/09 06:48:54;;;;;;;16.42;3.30;;;;;;;35.21;14.14;99804.34;4945686;29;20054;-89
2022/04/09 06:51:22;;;;;;;16.42;4.30;;;;;;;35.98;13.34;99797.22;4949807;28;20101;-91
2022/04/09 06:53:53;;;;;;;11.50;4.65;;;;;;;35.68;13.51;99809.53;4968926;28;20026;-90
2022/04/09 06:56:19;;;;;;;17.45;3.50;;;;;;;35.68;13.53;99803.94;4979864;28;20046;-92
2022/04/09 06:58:46;;;;;;;19.75;3.58;;;;;;;35.40;13.92;99806.59;4987458;28;20034;-91
2022/04/09 07:01:12;;;;;;;8.30;3.05;;;;;;;36.16;12.98;99804.22;4982260;28;20102;-92
2022/04/09 07:03:38;;;;;;;8.88;3.17;;;;;;;35.01;14.06;99792.06;4953036;28;20035;-92
2022/04/09 07:06:04;;;;;;;9.00;3.38;;;;;;;34.61;14.82;99801.03;4963390;28;20035;-93
2022/04/09 07:08:30;;;;;;;10.43;4.03;;;;;;;35.86;13.74;99798.88;4949729;28;20027;-91
2022/04/09 07:11:13;;;;;;;8.43;3.60;;;;;;;37.35;12.71;99797.09;4964910;28;20753;-91
2022/04/09 07:13:41;;;;;;;8.20;3.97;;;;;;;38.58;11.29;99793.06;4974879;28;20049;-88
2022/04/09 07:16:16;;;;;;;7.30;3.13;;;;;;;37.24;11.85;99771.59;5060315;23;20050;-95
2022/04/09 07:18:41;;;;;;;;;;;;;;;39.09;11.31;99790.03;4994214;28;20045;-89
2022/04/09 07:21:07;;;;;;;7.63;3.40;;;;;;;38.30;11.62;99780.03;5002624;28;19917;-90
2022/04/09 07:23:35;;;;;;;10.20;3.33;;;;;;;38.48;11.17;99777.63;5020420;28;20121;-91
2022/04/09 07:26:02;;;;;;;7.50;3.50;;;;;;;37.54;11.83;99780.38;4999664;28;20044;-91
2022/04/09 07:28:27;;;;;;;8.57;3.78;;;;;;;38.67;11.19;99785.22;5008037;28;20046;-90
2022/04/09 07:30:54;;;;;;;13.15;4.63;;;;;;;39.26;11.07;99778.25;4980900;28;20085;-87
2022/04/09 07:33:20;;;;;;;8.40;4.78;;;;;;;39.59;11.27;99784.41;4986209;28;20479;-91
2022/04/09 07:36:13;;;;;;;9.55;4.05;;;;;;;37.82;11.90;99790.63;4965709;28;20092;-90
2022/04/09 07:38:40;;;;;;;11.43;3.65;;;;;;;37.47;12.59;99790.56;4999938;28;20064;-89
2022/04/09 07:41:31;;;;;;;9.93;3.97;;;;;;;37.67;12.42;99794.28;4989336;28;20031;-95
2022/04/09 07:44:04;;;;;;;;;;;;;;;38.51;12.07;99773.28;4992937;28;20042;-94
2022/04/09 07:49:14;;;;;;;12.93;4.00;;;;;;;38.39;11.92;99758.19;5356139;23;20161;-92
2022/04/09 07:54:34;;;;;;;;;;;;;;;;;;;;;
2022/04/09 07:59:35;;;;;;;11.98;4.15;;;;;;;37.93;12.14;99749.59;5806224;23;20978;-90
2022/04/09 08:02:01;;;;;;;9.10;3.60;;;;;;;38.13;12.11;99766.47;5199195;23;20357;-93
2022/04/09 08:12:29;;;;;;;6.55;3.45;;;;;;;35.76;13.44;99759.44;5499925;23;21163;-91
2022/04/09 08:23:09;;;;;;;8.90;3.75;;;;;;;32.63;16.65;99759.97;5393033;23;20077;31
2022/04/09 08:25:41;;;;;;;8.95;3.58;;;;;;;33.90;15.79;99732.19;5393578;23;20038;-89
2022/04/09 08:47:03;;;;;;;10.98;4.07;;;;;;;36.83;13.07;99756.09;5675999;23;20685;31
2022/04/09 09:13:10;;;;;;;10.20;4.35;;;;;;;36.38;14.16;99746.88;5653342;23;20053;31
2022/04/09 09:33:06;;;;;;;6.30;2.92;;;;;;;36.11;13.62;99712.97;5309942;23;20054;-95
2022/04/09 09:35:56;;;;;;;8.52;3.22;;;;;;;37.44;12.48;99712.81;5007836;23;20111;-91
2022/04/09 09:38:40;;;;;;;;;;;;;;;;;;;;;
2022/04/09 09:41:05;;;;;;;6.75;2.20;;;;;;;34.46;13.97;99692.81;4947228;29;20063;-94
2022/04/09 09:43:31;;;;;;;6.07;2.10;;;;;;;35.60;13.11;99703.41;4927730;29;20038;-91
2022/04/09 09:45:57;;;;;;;6.82;2.03;;;;;;;36.23;13.08;99706.50;4954821;29;20039;-92
2022/04/09 09:48:25;;;;;;;6.07;2.10;;;;;;;34.22;14.34;99711.13;4954564;29;20031;-93
2022/04/09 09:50:55;;;;;;;7.63;3.10;;;;;;;36.21;13.05;99697.66;4935227;29;20030;-94
2022/04/09 09:53:41;;;;;;;8.40;2.70;;;;;;;37.21;12.48;99698.69;4916523;29;20046;-93
2022/04/09 09:56:07;;;;;;;7.85;2.80;;;;;;;38.81;11.12;99692.78;4960313;29;20039;-92
2022/04/09 09:58:32;;;;;;;3.95;2.28;;;;;;;38.94;10.74;99678.56;4946459;29;20023;-90
2022/04/09 10:00:59;;;;;;;11.07;2.95;;;;;;;39.10;11.95;99696.09;4944520;29;20054;-90
2022/04/09 10:03:26;;;;;;;8.57;3.05;;;;;;;39.45;11.80;99690.25;4975994;28;20055;-88
2022/04/09 10:05:52;;;;;;;10.57;4.55;;;;;;;41.11;11.06;99684.44;4954066;28;20059;-86
2022/04/09 10:08:22;;;;;;;7.78;3.33;;;;;;;40.85;10.50;99688.25;4964640;29;20537;-86
2022/04/09 10:10:50;;;;;;;6.03;2.95;;;;;;;40.51;10.62;99697.59;4941999;29;20024;-88
2022/04/09 10:13:23;;;;;;;3.97;2.38;;;;;;;41.62;10.11;99694.88;4966501;29;20042;-91
2022/04/09 10:15:52;;;;;;;4.00;2.50;;;;;;;39.64;11.35;99692.13;4935116;29;20123;-89
2022/04/09 10:18:37;;;;;;;7.93;2.50;;;;;;;39.65;11.13;99692.91;4937849;29;20141;-94
2022/04/09 10:21:04;;;;;;;8.95;2.72;;;;;;;37.94;12.53;99669.88;4944456;29;20058;-91
2022/04/09 10:23:36;;;;;;;4.97;2.53;;;;;;;38.08;12.73;99696.63;4928542;29;20134;-93
2022/04/09 10:26:03;;;;;;;4.97;2.60;;;;;;;37.84;13.10;99692.91;4935374;29;20075;-90
2022/04/09 10:28:34;;;;;;;7.50;2.17;;;;;;;37.70;12.69;99693.41;4919120;29;20075;-88
2022/04/09 10:31:00;;;;;;;7.55;2.80;;;;;;;38.30;12.61;99698.66;4923569;29;20416;-91
2022/04/09 10:33:29;;;;;;;5.47;2.45;;;;;;;37.67;12.96;99698.94;4908947;29;20065;-88
2022/04/09 10:36:01;;;;;;;6.00;2.70;;;;;;;37.91;12.83;99693.06;4947767;29;20525;-91
2022/04/09 10:38:36;;;;;;;7.25;2.97;;;;;;;38.76;12.13;99681.88;4912765;29;20036;-94
2022/04/09 10:41:05;;;;;;;7.25;2.60;;;;;;;38.25;12.49;99701.78;4956750;28;20054;-92
2022/04/09 10:43:37;;;;;;;4.28;2.35;;;;;;;35.46;14.21;99698.97;4958339;28;20030;-92
2022/04/09 10:46:04;;;;;;;4.18;2.58;;;;;;;34.83;15.32;99695.72;4947594;29;20044;-87
2022/04/09 10:48:31;;;;;;;4.57;2.50;;;;;;;35.02;14.83;99676.41;4963025;28;20028;-88
2022/04/09 10:51:05;;;;;;;6.03;2.78;;;;;;;35.21;15.07;99667.47;4916185;29;20044;-88
2022/04/09 10:53:42;;;;;;;9.52;2.45;;;;;;;35.12;14.97;99668.75;4950109;29;20123;-88
2022/04/09 10:56:32;;;;;;;4.93;2.47;;;;;;;32.94;16.33;99685.41;4919907;29;20045;-87
2022/04/09 10:59:08;;;;;;;5.80;2.50;;;;;;;32.24;17.53;99670.88;4942746;29;20032;-86
2022/04/09 11:01:48;;;;;;;5.72;2.55;;;;;;;33.16;16.73;99664.81;4950873;29;20039;-87
2022/04/09 11:04:29;;;;;;;4.50;2.60;;;;;;;34.85;15.58;99676.66;4943092;29;20116;-85
2022/04/09 11:07:32;;;;;;;4.78;2.50;;;;;;;34.68;15.33;99672.91;4951199;29;20046;-85
2022/04/09 11:10:04;;;;;;;5.45;2.80;;;;;;;35.30;15.24;99670.13;4962780;29;20043;-88
2022/04/09 11:12:55;;;;;;;5.30;2.40;;;;;;;34.58;15.00;99659.38;4940803;29;20091;-88
2022/04/09 11:15:21;;;;;;;6.90;2.83;;;;;;;35.33;14.77;99655.44;4927044;29;20043;-85
2022/04/09 11:17:48;;;;;;;3.90;2.38;;;;;;;35.18;14.62;99662.59;4942994;29;20055;-85
2022/04/09 11:20:23;;;;;;;5.25;2.80;;;;;;;34.79;15.27;99664.06;4934313;29;20043;-84
2022/04/09 11:22:58;;;;;;;4.78;2.47;;;;;;;34.96;15.07;99654.63;4946718;29;20027;-82
2022/04/09 11:25:31;;;;;;;4.20;2.50;;;;;;;35.63;14.73;99649.59;4950324;29;20039;-86
2022/04/09 11:28:13;;;;;;;6.57;2.55;;;;;;;35.40;14.94;99647.31;4929803;29;20102;-83
2022/04/09 11:31:03;;;;;;;7.22;2.60;;;;;;;34.20;15.69;99624.19;4938391;29;20039;-84
2022/04/09 11:33:28;;;;;;;6.30;2.60;;;;;;;32.57;17.64;99648.88;4945064;29;20440;-84
2022/04/09 11:35:54;;;;;;;5.85;2.45;;;;;;;31.82;18.39;99634.41;4945764;29;20047;-82
2022/04/09 11:38:27;;;;;;;4.75;2.40;;;;;;;31.54;18.41;99631.16;4934035;29;20046;-83
2022/04/09 11:40:54;;;;;;;7.35;2.83;;;;;;;32.22;18.02;99617.53;4925407;29;20027;-84
2022/04/09 11:43:21;;;;;;;4.85;2.50;;;;;;;32.97;17.25;99637.41;4897062;29;20042;-82
2022/04/09 11:45:51;;;;;;;8.63;2.88;;;;;;;33.45;16.96;99620.56;4940339;29;20035;-84
2022/04/09 11:51:55;;;;;;;5.47;2.60;;;;;;;33.08;17.51;99617.53;4866518;29;20139;-84
2022/04/09 11:54:21;;;;;;;7.63;2.45;;;;;;;34.02;16.60;99614.31;4936917;29;20051;-84
2022/04/09 11:56:46;;;;;;;7.68;2.50;;;;;;;33.46;17.37;99605.47;4934759;29;20055;-82
2022/04/09 11:59:13;;;;;;;7.60;2.60;;;;;;;33.01;17.60;99599.38;4948783;29;20488;-83
2022/04/09 12:01:47;;;;;;;6.13;2.58;;;;;;;32.94;18.01;99613.03;4951187;29;20125;-84
2022/04/09 12:04:20;;;;;;;3.75;2.40;;;;;;;32.52;18.26;99598.97;4949996;29;20117;-83
2022/04/09 12:06:46;;;;;;;19.05;3.05;;;;;;;31.86;19.15;99579.78;4956333;29;20038;-82
2022/04/09 12:09:14;;;;;;;7.75;2.60;;;;;;;31.74;19.04;99583.25;4924383;29;20063;-82
2022/04/09 12:11:52;;;;;;;12.35;2.75;;;;;;;31.36;19.34;99579.50;4940642;29;20043;-84
2022/04/09 12:14:20;;;;;;;9.23;2.60;;;;;;;29.74;21.40;99587.31;4940447;29;20083;-82
2022/04/09 12:16:46;;;;;;;6.15;2.80;;;;;;;29.13;22.54;99593.09;4939018;29;20058;-82
2022/04/09 12:19:13;;;;;;;7.97;2.72;;;;;;;28.85;22.73;99583.19;4931869;29;20034;-83
2022/04/09 12:21:39;;;;;;;6.95;2.92;;;;;;;28.37;23.27;99585.16;4925534;29;20056;-83
2022/04/09 12:24:11;;;;;;;6.68;2.80;;;;;;;27.42;25.12;99576.28;4952413;29;20042;-82
2022/04/09 12:26:38;;;;;;;9.43;3.55;;;;;;;26.49;26.07;99589.56;4936457;29;20061;-86
2022/04/09 12:29:26;;;;;;;6.90;3.25;;;;;;;26.06;28.20;99582.03;4935944;29;20043;-83
2022/04/09 12:32:14;;;;;;;7.43;3.10;;;;;;;25.97;27.53;99586.50;4914800;29;20114;-80
2022/04/09 12:35:14;;;;;;;8.00;2.92;;;;;;;24.51;29.89;99591.41;4948220;29;20054;-84
2022/04/09 12:37:50;;;;;;;8.68;3.30;;;;;;;22.91;32.76;99586.06;4865738;29;20053;-86
2022/04/09 12:40:16;;;;;;;7.00;3.20;;;;;;;22.77;33.24;99586.53;4878254;29;20035;-84
2022/04/09 12:42:43;;;;;;;7.88;3.40;;;;;;;23.13;32.80;99580.38;4940976;29;20028;-83
2022/04/09 12:45:35;;;;;;;9.60;3.55;;;;;;;22.89;32.87;99578.09;4933327;29;20095;-84
2022/04/09 12:48:01;;;;;;;8.93;3.45;;;;;;;22.50;33.83;99573.00;4919140;29;20048;-86
2022/04/09 12:50:35;;;;;;;11.07;3.50;;;;;;;22.96;33.16;99562.22;4931920;29;20054;-82
2022/04/09 12:53:14;;;;;;;11.43;3.65;;;;;;;22.16;34.40;99597.13;4922786;29;20035;-86
2022/04/09 12:55:45;;;;;;;11.30;3.78;;;;;;;21.84;35.08;99550.66;4941615;29;20051;-90
2022/04/09 12:58:11;;;;;;;9.02;3.35;;;;;;;20.85;36.98;99566.34;4918548;29;20424;-88
2022/04/09 13:00:40;;;;;;;7.47;3.45;;;;;;;21.09;37.10;99583.28;4936297;29;20047;-87
2022/04/09 13:03:06;;;;;;;8.82;3.17;;;;;;;20.93;36.79;99578.72;4941022;29;20055;-86
2022/04/09 13:05:38;;;;;;;7.47;3.33;;;;;;;20.46;37.89;99585.47;4943279;29;20511;-89
2022/04/09 13:08:05;;;;;;;7.22;3.28;;;;;;;20.48;37.84;99582.50;4937649;29;20053;-87